Flight Track Log - Related Links

Times and Time Zones

All times are in EDT time to prevent confusion due to time zone crossing. See the SWA127 flight status page for this flight to view local times or setup timezone preferences in your user account.

Time Position Orientation Groundspeed Altitude Reporting Facility
EDT Latitude Longitude Course Direction KTS MPH feet Rate Location/Type
Sun 06:34:02 AM 40.5036 -80.2844 272° West 167 192 2,500  Level FAA TRACON SMA TRACON (SMA)
Sun 06:34:21 AM 40.5042 -80.3075 272° West 172 198 3,200 2,100 Climbing FAA TRACON SMA TRACON (SMA)
Sun 06:34:42 AM 40.4939 -80.3153 210° Southwest 164 189 3,900 2,049 Climbing FAA TRACON SMA TRACON (SMA)
Sun 06:35:02 AM 40.4747 -80.3142 177° South 203 234 4,600 2,100 Climbing FAA TRACON SMA TRACON (SMA)
Sun 06:35:22 AM 40.4553 -80.3142 180° South 215 247 5,300 1,950 Climbing FAA TRACON SMA TRACON (SMA)
Sun 06:35:42 AM 40.4358 -80.3136 179° South 245 282 5,900 2,700 Climbing FAA TRACON SMA TRACON (SMA)
Sun 06:36:02 AM 40.4106 -80.3103 174° South 248 285 7,100 3,450 Climbing FAA TRACON SMA TRACON (SMA)
Sun 06:36:22 AM 40.3872 -80.3097 179° South 255 293 8,200 3,150 Climbing FAA TRACON SMA TRACON (SMA)
Sun 06:36:42 AM 40.3650 -80.3086 178° South 258 297 9,200 3,150 Climbing FAA TRACON SMA TRACON (SMA)
Sun 06:37:02 AM 40.3386 -80.3078 179° South 263 303 10,300 2,550 Climbing FAA TRACON SMA TRACON (SMA)
Sun 06:37:22 AM 40.3122 -80.3064 178° South 274 315 10,900 1,650 Climbing FAA TRACON SMA TRACON (SMA)
Sun 06:37:42 AM 40.2842 -80.3056 179° South 320 368 11,400 2,250 Climbing FAA TRACON SMA TRACON (SMA)
Sun 06:38:02 AM 40.2528 -80.3025 176° South 320 368 12,400 2,550 Climbing FAA TRACON SMA TRACON (SMA)
Sun 06:38:22 AM 40.2208 -80.3036 182° South 343 395 13,100 2,400 Climbing FAA TRACON SMA TRACON (SMA)
Sun 06:38:42 AM 40.1911 -80.3028 179° South 347 399 14,000 3,150 Climbing FAA TRACON SMA TRACON (SMA)
Sun 06:39:02 AM 40.1539 -80.3008 178° South 345 397 15,200 3,300 Climbing FAA TRACON SMA TRACON (SMA)
Sun 06:39:22 AM 40.1244 -80.3003 179° South 344 396 16,200 3,000 Climbing FAA TRACON SMA TRACON (SMA)
Sun 06:39:42 AM 40.0950 -80.2994 179° South 344 396 17,200 3,150 Climbing FAA TRACON SMA TRACON (SMA)
Sun 06:40:02 AM 40.0583 -80.2981 178° South 343 395 18,300 2,850 Climbing FAA TRACON SMA TRACON (SMA)
Sun 06:40:22 AM 40.0289 -80.2969 178° South 343 395 19,100 2,488 Climbing FAA TRACON SMA TRACON (SMA)
Sun 06:40:43 AM 39.9919 -80.2961 179° South 345 397 20,000 2,400 Climbing FAA TRACON SMA TRACON (SMA)
Sun 06:41:02 AM 39.9619 -80.2950 178° South 348 400 20,700 2,000 Climbing FAA TRACON SMA TRACON (SMA)
Sun 06:41:22 AM 39.9314 -80.2942 179° South 352 405 21,300 1,350 Climbing FAA TRACON SMA TRACON (SMA)
Sun 06:41:42 AM 39.9161 -80.2936 178° South 354 407 21,600 295 Climbing FAA TRACON SMA TRACON (SMA)
Sun 06:42:23 AM 39.9161 -80.2936 323° Northwest 354 407 21,600 1,842 Level FAA TRACON SMA TRACON (SMA)
Sun 06:43:23 AM 39.7225 -80.2833 178° South 366 421 24,700 2,250 Climbing Washington Center
Sun 06:44:23 AM 39.6100 -80.2814 179° South 391 450 26,100 1,450 Climbing Washington Center
Sun 06:45:23 AM 39.4956 -80.2739 177° South 406 467 27,600 1,600 Climbing Washington Center
Sun 06:46:23 AM 39.3789 -80.2717 179° South 420 483 29,300 1,500 Climbing Washington Center
Sun 06:47:23 AM 39.2622 -80.2697 179° South 420 483 30,600 1,200 Climbing Washington Center
Sun 06:48:23 AM 39.1508 -80.2972 191° South 420 483 31,700 1,150 Climbing Washington Center
Sun 06:49:23 AM 39.0367 -80.3328 194° South 420 483 32,900 1,450 Climbing Washington Center
Sun 06:50:23 AM 38.9272 -80.3628 192° South 415 478 34,600 1,350 Climbing Washington Center
Sun 06:51:23 AM 38.8197 -80.3931 192° South 410 472 35,600 700 Climbing Washington Center
Sun 06:52:23 AM 38.7094 -80.4367 197° South 410 472 36,000 200 Climbing Washington Center
Sun 06:53:23 AM 38.5956 -80.4689 192° South 417 480 36,000  Level Washington Center
Sun 06:54:23 AM 38.4878 -80.5017 193° South 417 480 36,000  Level Washington Center
Sun 06:55:23 AM 38.3908 -80.5269 192° South 412 474 36,000  Level Washington Center
Sun 06:56:23 AM 38.2772 -80.5486 189° South 412 474 36,000  Level Washington Center
Sun 06:57:23 AM 38.1619 -80.5647 186° South 417 480 36,000  Level Washington Center
Sun 06:58:23 AM 38.0464 -80.5833 187° South 417 480 36,000  Level Washington Center
Sun 06:59:23 AM 37.9206 -80.5986 185° South 417 480 36,000  Level Washington Center
Sun 07:00:23 AM 37.8072 -80.6175 188° South 417 480 36,000  Level Washington Center
Sun 07:02:18 AM 37.5836 -80.6481 186° South 429 494 36,000  Level Atlanta Center
Sun 07:03:18 AM 37.4672 -80.6608 185° South 424 488 36,000  Level Atlanta Center
Sun 07:04:18 AM 37.3508 -80.6789 187° South 424 488 36,000  Level Atlanta Center
Sun 07:05:18 AM 37.2347 -80.6944 186° South 424 488 36,000  Level Atlanta Center
Sun 07:06:18 AM 37.1286 -80.7092 186° South 424 488 36,000  Level Atlanta Center
Sun 07:07:18 AM 37.0125 -80.7247 186° South 424 488 36,000  Level Atlanta Center
Sun 07:08:18 AM 36.8939 -80.7347 184° South 424 488 36,000  Level Atlanta Center
Sun 07:09:18 AM 36.7628 -80.7481 185° South 424 488 36,000  Level Atlanta Center
Sun 07:10:18 AM 36.6486 -80.7606 185° South 424 488 36,000  Level Atlanta Center
Sun 07:11:18 AM 36.5342 -80.7728 185° South 424 488 36,000  Level Atlanta Center
Sun 07:12:18 AM 36.4178 -80.7853 185° South 424 488 36,000  Level Atlanta Center
Sun 07:13:18 AM 36.3011 -80.7978 185° South 424 488 36,000  Level Atlanta Center
Sun 07:14:18 AM 36.1869 -80.8128 186° South 424 488 36,000  Level Atlanta Center
Sun 07:15:18 AM 36.0808 -80.8222 184° South 424 488 36,000  Level Atlanta Center
Sun 07:16:18 AM 35.9664 -80.8344 185° South 424 488 36,000  Level Atlanta Center
Sun 07:17:18 AM 35.8500 -80.8467 185° South 424 488 36,000  Level Atlanta Center
Sun 07:18:18 AM 35.7314 -80.8589 185° South 424 488 36,000  Level Atlanta Center
Sun 07:19:18 AM 35.6022 -80.8717 185° South 424 488 36,000  Level Atlanta Center
Sun 07:20:18 AM 35.4858 -80.8839 185° South 424 488 36,000  Level Atlanta Center
Sun 07:21:18 AM 35.3692 -80.8983 186° South 424 488 36,000  Level Atlanta Center
Sun 07:23:03 AM 35.1769 -80.9169 185° South 416 479 36,000  Level Jacksonville Center
Sun 07:24:03 AM 35.0583 -80.9325 186° South 422 486 36,000  Level Jacksonville Center
Sun 07:25:03 AM 34.9375 -80.9478 186° South 432 497 36,000  Level Jacksonville Center
Sun 07:26:03 AM 34.8125 -80.9531 182° South 427 491 36,000  Level Jacksonville Center
Sun 07:27:03 AM 34.6958 -80.9658 185° South 426 490 36,000  Level Jacksonville Center
Sun 07:28:03 AM 34.5772 -80.9836 187° South 419 482 36,000  Level Jacksonville Center
Sun 07:29:03 AM 34.4628 -80.9964 185° South 419 482 36,000  Level Jacksonville Center
Sun 07:30:03 AM 34.3461 -81.0039 183° South 424 488 36,000  Level Jacksonville Center
Sun 07:31:03 AM 34.2481 -81.0161 186° South 416 479 36,000  Level Jacksonville Center
Sun 07:32:03 AM 34.1314 -81.0211 182° South 411 473 36,000  Level Jacksonville Center
Sun 07:33:03 AM 34.0125 -81.0261 182° South 422 486 36,000  Level Jacksonville Center
Sun 07:34:03 AM 33.8936 -81.0311 182° South 422 486 36,000  Level Jacksonville Center
Sun 07:35:03 AM 33.7872 -81.0333 181° South 422 486 36,000  Level Jacksonville Center
Sun 07:36:03 AM 33.6558 -81.0411 183° South 422 486 36,000  Level Jacksonville Center
Sun 07:37:03 AM 33.5369 -81.0436 181° South 422 486 36,000  Level Jacksonville Center
Sun 07:38:03 AM 33.4181 -81.0486 182° South 428 493 36,000  Level Jacksonville Center
Sun 07:39:03 AM 33.2972 -81.0536 182° South 428 493 36,000  Level Jacksonville Center
Sun 07:40:03 AM 33.1783 -81.0586 182° South 433 498 36,000  Level Jacksonville Center
Sun 07:41:03 AM 33.0572 -81.0636 182° South 433 498 36,000  Level Jacksonville Center
Sun 07:42:03 AM 32.9361 -81.0683 182° South 438 504 36,000  Level Jacksonville Center
Sun 07:43:03 AM 32.8153 -81.0733 182° South 438 504 36,000  Level Jacksonville Center
Sun 07:44:03 AM 32.6942 -81.0758 181° South 438 504 36,000  Level Jacksonville Center
Sun 07:45:03 AM 32.5775 -81.0831 183° South 431 496 36,000 -300 Level Jacksonville Center
Sun 07:46:03 AM 32.4458 -81.0881 182° South 425 489 35,400 -1,050 Descending Jacksonville Center
Sun 07:47:03 AM 32.3228 -81.0881 180° South 441 507 33,900 -700 Descending Jacksonville Center
Sun 07:48:03 AM 32.2061 -81.0953 183° South 431 496 34,000 50 Climbing Jacksonville Center
Sun 07:49:03 AM 32.0892 -81.1000 182° South 418 481 34,000  Level Jacksonville Center
Sun 07:50:03 AM 31.9722 -81.1047 182° South 423 487 34,000  Level Jacksonville Center
Sun 07:51:03 AM 31.8681 -81.1067 181° South 423 487 34,000  Level Jacksonville Center
Sun 07:52:03 AM 31.7344 -81.1119 182° South 423 487 34,000  Level Jacksonville Center
Sun 07:53:03 AM 31.6175 -81.1164 182° South 423 487 34,000  Level Jacksonville Center
Sun 07:54:03 AM 31.5089 -81.1186 181° South 423 487 34,000  Level Jacksonville Center
Sun 07:55:03 AM 31.3817 -81.1208 181° South 423 487 34,000  Level Jacksonville Center
Sun 07:56:03 AM 31.2775 -81.1328 186° South 423 487 34,000  Level Jacksonville Center
Sun 07:57:03 AM 31.1500 -81.1350 181° South 413 475 34,000  Level Jacksonville Center
Sun 07:58:03 AM 31.0333 -81.1422 183° South 418 481 34,000  Level Jacksonville Center
Sun 07:59:03 AM 30.9122 -81.1467 182° South 423 487 34,000 -50 Level Jacksonville Center
Sun 08:00:03 AM 30.7933 -81.1489 181° South 429 494 33,900  Descending Jacksonville Center
Sun 08:01:03 AM 30.6744 -81.1536 182° South 429 494 34,000 50 Climbing Jacksonville Center
Sun 08:02:03 AM 30.5572 -81.1508 179° South 424 488 34,000  Level Jacksonville Center
Sun 08:03:03 AM 30.4342 -81.1506 180° South 424 488 34,000  Level Jacksonville Center
Sun 08:04:03 AM 30.3108 -81.1458 178° South 435 501 34,000  Level Jacksonville Center
Sun 08:05:03 AM 30.1919 -81.1431 179° South 435 501 34,000  Level Jacksonville Center
Sun 08:06:03 AM 30.0706 -81.1356 177° South 440 506 34,000 -350 Level Jacksonville Center
Sun 08:07:03 AM 29.9494 -81.1331 179° South 440 506 33,300 -2,050 Descending Jacksonville Center
Sun 08:08:03 AM 29.8347 -81.1303 179° South 435 501 29,900 -3,050 Descending Jacksonville Center
Sun 08:09:03 AM 29.7178 -81.1278 179° South 435 501 27,200 -2,600 Descending Jacksonville Center
Sun 08:10:03 AM 29.6050 -81.1250 179° South 422 486 24,700 -2,500 Descending Jacksonville Center
Sun 08:11:03 AM 29.4986 -81.1244 180° South 408 470 22,200 -2,350 Descending Jacksonville Center
Sun 08:12:03 AM 29.3961 -81.1192 177° South 386 444 20,000 -2,200 Descending Jacksonville Center
Sun 08:13:03 AM 29.2958 -81.1164 179° South 374 430 17,800 -2,200 Descending Jacksonville Center
Sun 08:14:03 AM 29.1978 -81.1086 176° South 361 415 15,600 -2,250 Descending Jacksonville Center
Sun 08:15:03 AM 29.1036 -81.0958 173° South 356 410 13,300 -1,800 Descending Jacksonville Center
Sun 08:16:03 AM 29.0117 -81.0928 178° South 344 396 12,000 -1,250 Descending Jacksonville Center
Sun 08:17:03 AM 28.9322 -81.0753 169° South 321 369 10,800 -1,446 Descending Jacksonville Center
Sun 08:17:55 AM 28.8500 -81.0667 175° South 297 342 9,300 -1,875 Descending Orlando TRACON
Sun 08:18:55 AM 28.7833 -81.0833 192° South 292 336 7,300 -1,700 Descending Orlando TRACON
Sun 08:19:55 AM 28.7333 -81.1500 229° Southwest 277 319 5,900 -1,571 Descending Orlando TRACON
Sun 08:21:01 AM 28.6833 -81.2167 229° Southwest 271 312 4,000 -1,323 Descending Orlando TRACON
Sun 08:22:02 AM 28.6167 -81.2500 204° Southwest 249 287 3,100 -744 Descending Orlando TRACON
Sun 08:23:02 AM 28.5667 -81.3000 221° Southwest 221 254 2,500 -700 Descending Orlando TRACON
Sun 08:24:02 AM 28.5167 -81.3000 180° South 132 152 1,700 -789 Descending Orlando TRACON
Sun 08:24:56 AM 28.4833 -81.3000 180° South 133 153 1,000 -778 Descending Orlando TRACON
Sun 08:26:00 AM 28.4294 -81.3090 180° South  Level Estimated
Sun 08:33:00 AM 28.4294 -81.3090 336° Northwest  Level Estimated
Sun 08:34:00 AM 28.4294 -81.3090 336° Northwest  Level Estimated
Sun 08:35:00 AM 28.4294 -81.3090 336° Northwest  Level Estimated
Sun 08:36:00 AM 28.4294 -81.3090 336° Northwest  Level Estimated
Sun 08:37:00 AM 28.4294 -81.3090 336° Northwest  Level Estimated

Login

Don't have an account? Register now (free) for customized features, flight alerts, and more!